Aviation Digital Data Service (ADDS)

Output produced by METARs form (1325 UTC 27 July 2016)
found at http://www.aviationweather.gov/adds/metars/
 
KDUJ 271253Z AUTO 03003KT 10SM CLR 22/16 A3007 RMK AO2 SLP169 T02170161
KDUJ 271153Z AUTO 00000KT 10SM CLR 19/15 A3006 RMK AO2 SLP167 T01940150 10194 20144 51009
KDUJ 271053Z AUTO 03003KT 10SM OVC100 17/14 A3006 RMK AO2 SLP167 T01720139
KDUJ 270953Z AUTO 00000KT 10SM CLR 15/13 A3005 RMK AO2 SLP163 T01500128
KDUJ 270853Z AUTO 00000KT 10SM CLR 16/14 A3003 RMK AO2 SLP156 T01610139 58004
KDUJ 270753Z AUTO 00000KT 10SM CLR 16/13 A3004 RMK AO2 SLP158 T01560133
KDUJ 270653Z AUTO 00000KT 10SM CLR 16/14 A3005 RMK AO2 SLP161 T01610139
KDUJ 270553Z AUTO 01003KT 10SM CLR 18/14 A3005 RMK AO2 SLP160 T01830139 10244 20167 55000
KDUJ 270453Z AUTO 00000KT 10SM CLR 18/14 A3005 RMK AO2 SLP160 T01780144 403000172
KDUJ 270353Z AUTO 00000KT 10SM CLR 18/14 A3005 RMK AO2 SLP160 T01780144
KDUJ 270253Z AUTO 35004KT 10SM CLR 21/14 A3005 RMK AO2 SLP161 T02110144 51008
KDUJ 270153Z AUTO 34003KT 10SM CLR 22/14 A3005 RMK AO2 SLP160 T02220139
KDUJ 270053Z AUTO 32004KT 10SM CLR 23/14 A3003 RMK AO2 SLP154 T02330139
KDUJ 262353Z AUTO 32004KT 10SM CLR 24/13 A3002 RMK AO2 SLP153 T02440133 10300 20244 53001
KDUJ 262253Z AUTO 32006KT 10SM CLR 27/13 A3001 RMK AO2 SLP150 T02670128
KDUJ 262153Z AUTO 31008KT 10SM CLR 28/13 A3002 RMK AO2 SLP149 T02830128
KDUJ 262053Z AUTO 35007KT 10SM CLR 29/12 A3002 RMK AO2 SLP149 T02890122 56011
KDUJ 261953Z AUTO 33008G17KT 10SM CLR 29/12 A3003 RMK AO2 SLP153 T02890117
KDUJ 261853Z AUTO 30009KT 270V330 10SM CLR 29/12 A3004 RMK AO2 SLP157 T02890122
KDUJ 261753Z AUTO 30009KT 10SM FEW049 29/15 A3005 RMK AO2 SLP161 T02890150 10289 20194 58005
KDUJ 261653Z AUTO 25006KT 10SM CLR 28/14 A3006 RMK AO2 SLP163 T02780144
KDUJ 261553Z AUTO VRB05KT 10SM FEW036 27/16 A3006 RMK AO2 SLP163 T02720161
KDUJ 261453Z AUTO 32007KT 10SM CLR 26/16 A3007 RMK AO2 SLP165 T02560161 51003
KDUJ 261353Z AUTO 10SM SCT016 23/18 A3006 RMK AO2 SLP166 T02330178
KDUJ 261253Z AUTO 35004KT 10SM FEW006 22/18 A3006 RMK AO2 SLP166 T02170178
KDUJ 261243Z AUTO 34005KT 10SM SCT006 22/18 A3006 RMK AO2 T02170178
KDUJ 261153Z AUTO 34003KT 6SM BR OVC005 19/18 A3006 RMK AO2 SLP165 70020 T01940178 10200 20183 53017
KDUJ 261109Z AUTO 35008KT 4SM BR BKN003 OVC006 19/18 A3005 RMK AO2 T01940183
KDUJ 261103Z AUTO 35006KT 1SM BR OVC006 19/18 A3004 RMK AO2 T01940183
KDUJ 261053Z AUTO 00000KT 1/4SM FG VV006 19/17 A3004 RMK AO2 SLP157 T01890172
KDUJ 261045Z AUTO 00000KT M1/4SM FG VV005 18/18 A3003 RMK AO2 T01830178
KDUJ 261028Z AUTO 00000KT 1/4SM FG VV003 19/18 A3003 RMK AO2 T01890178
KDUJ 260956Z AUTO 22003KT 1/4SM FG VV006 19/18 A3002 RMK AO2 T01890178
KDUJ 260953Z AUTO 23003KT 1/2SM FG CLR 19/17 A3002 RMK AO2 SLP151 T01890172
KDUJ 260937Z AUTO 00000KT 1 3/4SM BR FEW006 19/18 A3001 RMK AO2 T01940178
KDUJ 260930Z AUTO 00000KT 3SM BR FEW007 19/18 A3001 RMK AO2 T01940178
KDUJ 260926Z AUTO 00000KT 1 1/2SM BR FEW007 19/18 A3001 RMK AO2 T01890178
KDUJ 260915Z AUTO 00000KT 1/2SM FG VV006 19/18 A3001 RMK AO2 T01890178
KDUJ 260853Z AUTO 00000KT 1SM BR CLR 19/18 A3000 RMK AO2 SLP146 T01940178 53003
KDUJ 260848Z AUTO 00000KT 1/2SM FG CLR 19/18 A3001 RMK AO2
KDUJ 260844Z AUTO 00000KT 1/4SM FG VV004 19/18 A3000 RMK AO2 T01890178
KDUJ 260828Z AUTO 24003KT 1/4SM FG CLR 19/18 A3001 RMK AO2 T01890178
KDUJ 260818Z AUTO 25003KT 1 3/4SM BR CLR 19/18 A3000 RMK AO2 T01890178
KDUJ 260756Z AUTO 25003KT 3SM BR CLR 19/18 A3000 RMK AO2 T01940178
KDUJ 260753Z AUTO 24003KT 1 1/2SM BR CLR 19/18 A3000 RMK AO2 SLP143 T01890178
KDUJ 260751Z AUTO 24003KT 1SM BR CLR 19/18 A3000 RMK AO2
KDUJ 260741Z AUTO 23003KT 1/4SM FG CLR 19/18 A2999 RMK AO2 T01890178
KDUJ 260733Z AUTO 00000KT 1 1/2SM BR CLR 19/18 A2999 RMK AO2 T01940183
KDUJ 260653Z AUTO 24003KT 6SM BR CLR 19/18 A3000 RMK AO2 SLP141 T01940178
KDUJ 260651Z AUTO 23003KT 2 1/2SM BR FEW003 19/18 A3000 RMK AO2
KDUJ 260642Z AUTO 22004KT 1SM BR VV003 18/18 A3000 RMK AO2 T01830178
KDUJ 260640Z AUTO 21003KT 1 1/2SM BR CLR 19/18 A3000 RMK AO2 T01890178
KDUJ 260553Z AUTO 00000KT 7SM CLR 20/19 A3000 RMK AO2 SLP143 T02000189 10261 20200 50002
KDUJ 260540Z AUTO 00000KT 3SM BR CLR 20/18 A3000 RMK AO2 T02000183
KDUJ 260527Z AUTO 00000KT 1 3/4SM BR CLR 20/19 A3001 RMK AO2 T02000189
KDUJ 260453Z AUTO 00000KT 6SM BR FEW048 21/19 A3001 RMK AO2 SLP145 T02060189 403280200
KDUJ 260353Z AUTO 00000KT 10SM SCT043 21/19 A3000 RMK AO2 SLP142 T02110194
KDUJ 260253Z AUTO VRB03KT 10SM CLR 23/19 A2999 RMK AO2 SLP141 T02280189 51010
KDUJ 260153Z AUTO 31005KT 10SM CLR 24/19 A2999 RMK AO2 SLP140 T02390194